Terminal Aerodrome Forecast
Issued by NWS Green Bay, WI

Home | Current Version | Previous Version | Text Only | Print | Product List | Glossary On
Versions: 1 2 3 4 5 6 7 8 9 10 11 12 13 14 15 16 17 18 19 20 21 22 23 24 25 26 27 28 29 30 31 32 33
000
FTUS43 KGRB 070500 AAA
TAFGRB
TAF AMD
KGRB 070556Z 0706/0806 12006KT 4SM BR SCT008 WS018/20035KT
      TEMPO 0709/0713 BKN008
     FM071500 18013G22KT P6SM SCT022 SCT150
     FM071800 18017G26KT P6SM SCT150
     FM080100 18010KT P6SM BKN090=

USA.gov is the U.S. government's official web portal to all federal, state and local government web resources and services.